createdAt,value
2019-01-26T00:00:40.645Z,20.70
2019-01-26T00:03:10.637Z,24.83
2019-01-26T00:05:40.815Z,25.77
2019-01-26T00:08:10.855Z,30.70
2019-01-26T00:10:40.751Z,25.57
2019-01-26T00:13:10.580Z,24.57
2019-01-26T00:15:54.724Z,25.77
2019-01-26T00:18:24.420Z,18.33
2019-01-26T00:20:54.345Z,20.03
2019-01-26T00:23:24.464Z,26.93
2019-01-26T00:26:04.620Z,23.20
2019-01-26T00:28:34.176Z,22.93
2019-01-26T00:31:04.136Z,19.33
2019-01-26T00:33:33.781Z,21.67
2019-01-26T00:36:03.657Z,26.27
2019-01-26T00:38:33.468Z,21.57
2019-01-26T00:41:03.180Z,23.90
2019-01-26T00:43:32.744Z,32.40
2019-01-26T00:46:02.368Z,21.50
2019-01-26T00:48:32.008Z,21.90
2019-01-26T00:51:02.416Z,28.23
2019-01-26T00:53:32.330Z,19.47
2019-01-26T00:56:01.913Z,30.37
2019-01-26T00:58:31.468Z,27.30
2019-01-26T01:01:01.101Z,20.83
2019-01-26T01:03:30.716Z,21.30
2019-01-26T01:06:00.487Z,17.50
2019-01-26T01:08:30.376Z,26.03
2019-01-26T01:11:00.008Z,21.77
2019-01-26T01:13:29.568Z,24.97
2019-01-26T01:15:59.500Z,21.03
2019-01-26T01:18:29.412Z,21.70
2019-01-26T01:20:58.997Z,29.70
2019-01-26T01:23:28.706Z,25.80
2019-01-26T01:25:58.720Z,19.57
2019-01-26T01:28:28.349Z,24.70
2019-01-26T01:30:57.896Z,26.43
2019-01-26T01:33:27.555Z,17.43
2019-01-26T01:35:57.484Z,17.83
2019-01-26T01:38:27.112Z,22.83
2019-01-26T01:40:56.836Z,25.37
2019-01-26T01:43:26.709Z,23.47
2019-01-26T01:45:56.516Z,22.53
2019-01-26T01:48:26.172Z,28.67
2019-01-26T01:50:55.720Z,24.93
2019-01-26T01:53:25.281Z,30.20
2019-01-26T01:55:55.149Z,25.77
2019-01-26T01:58:24.965Z,25.80
2019-01-26T02:00:55.071Z,17.73
2019-01-26T02:03:25.300Z,26.30
2019-01-26T02:05:54.936Z,23.97
2019-01-26T02:08:24.491Z,20.53
2019-01-26T02:10:54.324Z,26.43
2019-01-26T02:13:24.219Z,19.30
2019-01-26T02:15:54.045Z,27.80
2019-01-26T02:18:23.959Z,19.07
2019-01-26T02:20:53.872Z,23.00
2019-01-26T02:23:23.468Z,21.60
2019-01-26T02:25:53.035Z,15.63
2019-01-26T02:28:22.592Z,19.60
2019-01-26T02:30:52.400Z,22.07
2019-01-26T02:33:22.100Z,19.83
2019-01-26T02:35:51.660Z,17.30
2019-01-26T02:38:21.238Z,18.33
2019-01-26T02:40:52.316Z,21.57
2019-01-26T02:43:22.058Z,25.77
2019-01-26T02:45:51.889Z,23.00
2019-01-26T02:48:21.846Z,26.87
2019-01-26T02:50:51.397Z,20.47
2019-01-26T02:53:21.315Z,20.63
2019-01-26T02:55:51.225Z,25.67
2019-01-26T02:58:20.848Z,16.37
2019-01-26T03:00:50.493Z,23.87
2019-01-26T03:03:20.048Z,22.10
2019-01-26T03:05:50.676Z,26.90
2019-01-26T03:08:20.589Z,18.93
2019-01-26T03:10:50.154Z,22.87
2019-01-26T03:13:20.004Z,25.87
2019-01-26T03:15:55.547Z,18.03
2019-01-26T03:18:25.365Z,18.70
2019-01-26T03:20:54.988Z,24.67
2019-01-26T03:23:24.621Z,21.37
2019-01-26T03:25:54.181Z,23.03
2019-01-26T03:28:23.752Z,20.57
2019-01-26T03:30:53.377Z,20.43
2019-01-26T03:33:23.001Z,18.00
2019-01-26T03:35:52.833Z,22.23
2019-01-26T03:38:22.466Z,20.53
2019-01-26T03:40:52.022Z,20.13
2019-01-26T03:43:22.353Z,17.87
2019-01-26T03:45:51.988Z,20.33
2019-01-26T03:48:21.558Z,11.13
2019-01-26T03:50:51.368Z,18.53
2019-01-26T03:53:21.017Z,14.80
2019-01-26T03:55:50.890Z,14.97
2019-01-26T03:58:20.800Z,15.27
2019-01-26T04:00:50.360Z,14.87
2019-01-26T04:03:20.187Z,17.80
2019-01-26T04:05:49.728Z,9.87
2019-01-26T04:08:19.744Z,12.27
2019-01-26T04:10:49.363Z,11.60
2019-01-26T04:13:19.020Z,17.43
2019-01-26T04:15:49.172Z,13.10
2019-01-26T04:18:19.037Z,14.03
2019-01-26T04:20:49.206Z,10.87
2019-01-26T04:23:18.759Z,17.30
2019-01-26T04:25:48.371Z,13.67
2019-01-26T04:28:18.324Z,15.50
2019-01-26T04:30:47.954Z,10.67
2019-01-26T04:33:17.508Z,11.83
2019-01-26T04:35:47.061Z,14.17
2019-01-26T04:38:17.013Z,10.07
2019-01-26T04:40:46.548Z,16.47
2019-01-26T04:43:16.328Z,17.20
2019-01-26T04:45:46.295Z,14.20
2019-01-26T04:48:16.014Z,12.30
2019-01-26T04:50:45.812Z,14.47
2019-01-26T04:53:15.385Z,10.73
2019-01-26T04:55:44.995Z,12.77
2019-01-26T04:58:14.879Z,16.50
2019-01-26T05:00:44.470Z,15.47
2019-01-26T05:03:14.094Z,15.43
2019-01-26T05:05:43.721Z,15.70
2019-01-26T05:08:13.260Z,9.70
2019-01-26T05:10:42.974Z,18.40
2019-01-26T05:13:12.530Z,14.53
2019-01-26T05:15:42.178Z,17.33
2019-01-26T05:18:11.693Z,17.90
2019-01-26T05:20:41.497Z,17.53
2019-01-26T05:23:11.717Z,12.20
2019-01-26T05:25:41.619Z,15.53
2019-01-26T05:28:11.184Z,12.63
2019-01-26T05:30:41.144Z,15.83
2019-01-26T05:33:10.857Z,17.57
2019-01-26T05:35:40.484Z,10.77
2019-01-26T05:38:10.384Z,10.53
2019-01-26T05:40:39.985Z,16.10
2019-01-26T05:43:09.551Z,11.57
2019-01-26T05:45:39.111Z,10.97
2019-01-26T05:48:08.927Z,16.67
2019-01-26T05:50:38.821Z,12.93
2019-01-26T05:53:08.633Z,9.77
2019-01-26T05:55:38.545Z,12.20
2019-01-26T05:58:08.459Z,14.67
2019-01-26T06:00:38.345Z,14.67
2019-01-26T06:03:07.988Z,16.00
2019-01-26T06:05:37.617Z,18.27
2019-01-26T06:08:07.172Z,10.97
2019-01-26T06:10:37.105Z,12.40
2019-01-26T06:13:06.805Z,16.37
2019-01-26T06:15:36.620Z,15.60
2019-01-26T06:18:06.234Z,12.07
2019-01-26T06:20:36.136Z,15.80
2019-01-26T06:23:05.845Z,13.43
2019-01-26T06:25:35.756Z,11.27
2019-01-26T06:28:05.683Z,14.10
2019-01-26T06:30:35.587Z,9.10
2019-01-26T06:33:05.295Z,15.63
2019-01-26T06:35:34.856Z,11.77
2019-01-26T06:38:04.467Z,14.63
2019-01-26T06:40:34.124Z,17.57
2019-01-26T06:43:03.775Z,11.47
2019-01-26T06:45:33.691Z,16.90
2019-01-26T06:48:03.852Z,12.17
2019-01-26T06:50:33.478Z,13.13
2019-01-26T06:53:03.475Z,14.97
2019-01-26T06:55:33.492Z,11.97
2019-01-26T06:58:03.110Z,13.87
2019-01-26T07:00:32.743Z,16.67
2019-01-26T07:03:02.432Z,15.60
2019-01-26T07:05:46.910Z,13.77
2019-01-26T07:08:18.949Z,14.67
2019-01-26T07:10:48.563Z,18.10
2019-01-26T07:13:18.196Z,16.43
2019-01-26T07:15:48.156Z,17.03
2019-01-26T07:18:24.669Z,13.20
2019-01-26T07:20:54.848Z,17.30
2019-01-26T07:23:24.409Z,14.90
2019-01-26T07:25:54.364Z,16.80
2019-01-26T07:28:24.059Z,14.47
2019-01-26T07:30:54.192Z,10.63
2019-01-26T07:33:24.551Z,15.77
2019-01-26T07:35:54.536Z,14.23
2019-01-26T07:38:24.173Z,14.17
2019-01-26T07:40:54.053Z,17.27
2019-01-26T07:43:23.716Z,20.10
2019-01-26T07:45:53.672Z,17.87
2019-01-26T07:48:23.895Z,16.13
2019-01-26T07:50:53.808Z,16.97
2019-01-26T07:53:23.497Z,12.67
2019-01-26T07:55:53.552Z,17.13
2019-01-26T07:58:23.252Z,12.80
2019-01-26T08:00:53.165Z,17.63
2019-01-26T08:03:22.711Z,10.73
2019-01-26T08:05:52.269Z,17.47
2019-01-26T08:08:21.833Z,16.03
2019-01-26T08:10:51.403Z,14.43
2019-01-26T08:13:21.395Z,17.23
2019-01-26T08:15:51.199Z,17.03
2019-01-26T08:18:24.232Z,20.07
2019-01-26T08:20:52.572Z,15.57
2019-01-26T08:23:22.316Z,18.13
2019-01-26T08:25:51.873Z,20.63
2019-01-26T08:28:21.418Z,17.60
2019-01-26T08:30:51.141Z,20.23
2019-01-26T08:33:20.700Z,18.83
2019-01-26T08:35:56.380Z,22.77
2019-01-26T08:38:25.942Z,25.33
2019-01-26T08:40:55.565Z,15.47
2019-01-26T08:43:25.784Z,23.67
2019-01-26T08:45:55.588Z,21.33
2019-01-26T08:48:31.138Z,17.43
2019-01-26T08:50:56.840Z,13.63
2019-01-26T08:53:26.666Z,16.50
2019-01-26T08:55:56.568Z,20.10
2019-01-26T08:58:26.484Z,16.13
2019-01-26T09:00:56.019Z,13.20
2019-01-26T09:03:51.196Z,16.67
2019-01-26T09:06:29.960Z,16.67
2019-01-26T09:09:00.136Z,24.73
2019-01-26T09:11:29.768Z,20.33
2019-01-26T09:13:59.552Z,18.03
2019-01-26T09:16:29.468Z,24.53
2019-01-26T09:18:59.276Z,54.43
2019-01-26T09:21:28.834Z,32.10
2019-01-26T09:23:58.469Z,23.47
2019-01-26T09:26:28.409Z,25.53
2019-01-26T09:28:58.216Z,19.50
2019-01-26T09:31:28.128Z,13.33
2019-01-26T09:33:58.016Z,30.77
2019-01-26T09:36:37.319Z,23.93
2019-01-26T09:39:10.402Z,31.03
2019-01-26T09:41:40.031Z,18.17
2019-01-26T09:44:09.721Z,17.40
2019-01-26T09:46:39.576Z,14.40
2019-01-26T09:49:09.713Z,13.27
2019-01-26T09:51:39.941Z,14.13
2019-01-26T09:54:09.869Z,10.80
2019-01-26T09:56:40.178Z,13.88
2019-01-26T09:59:10.164Z,14.37
2019-01-26T10:01:40.056Z,14.17
2019-01-26T10:04:09.933Z,14.30
2019-01-26T10:07:07.265Z,13.37
2019-01-26T10:09:36.992Z,14.47
2019-01-26T10:12:20.504Z,13.47
2019-01-26T10:14:50.092Z,15.07
2019-01-26T10:17:19.692Z,9.23
2019-01-26T10:19:49.524Z,11.90
2019-01-26T10:22:19.543Z,9.93
2019-01-26T10:24:49.111Z,9.57
2019-01-26T10:27:19.059Z,9.67
2019-01-26T10:29:48.870Z,7.33
2019-01-26T10:32:18.789Z,13.20
2019-01-26T10:34:48.903Z,12.33
2019-01-26T10:37:24.105Z,14.43
2019-01-26T10:39:54.516Z,8.60
2019-01-26T10:42:33.393Z,12.30
2019-01-26T10:45:09.552Z,9.67
2019-01-26T10:47:39.764Z,9.03
2019-01-26T10:50:09.617Z,12.37
2019-01-26T10:52:39.496Z,8.43
2019-01-26T10:55:10.307Z,14.83
2019-01-26T10:57:40.142Z,17.17
2019-01-26T11:00:13.540Z,12.60
2019-01-26T11:02:43.369Z,15.37
2019-01-26T11:05:13.160Z,13.70
2019-01-26T11:07:42.708Z,10.53
2019-01-26T11:10:13.165Z,13.07
2019-01-26T11:12:43.230Z,13.53
2019-01-26T11:15:13.822Z,12.77
2019-01-26T11:17:45.085Z,12.97
2019-01-26T11:20:15.406Z,8.60
2019-01-26T11:22:45.184Z,11.87
2019-01-26T11:25:15.000Z,11.63
2019-01-26T11:27:44.841Z,11.97
2019-01-26T11:30:14.688Z,8.10
2019-01-26T11:32:44.563Z,11.40
2019-01-26T11:35:14.377Z,11.57
2019-01-26T11:37:44.288Z,8.33
2019-01-26T11:40:22.497Z,8.70
2019-01-26T11:42:52.822Z,8.13
2019-01-26T11:45:36.313Z,7.30
2019-01-26T11:48:08.622Z,8.13
2019-01-26T11:50:43.344Z,8.87
2019-01-26T11:53:13.064Z,10.97
2019-01-26T11:56:04.748Z,10.57
2019-01-26T11:58:34.596Z,7.90
2019-01-26T12:01:22.631Z,9.33
2019-01-26T12:04:18.922Z,6.87
2019-01-26T12:07:10.361Z,9.73
2019-01-26T12:09:39.977Z,13.03
2019-01-26T12:12:09.612Z,8.30
2019-01-26T12:14:39.264Z,10.70
2019-01-26T12:17:09.245Z,14.93
2019-01-26T12:19:39.125Z,12.50
2019-01-26T12:22:08.728Z,12.63
2019-01-26T12:24:38.361Z,12.67
2019-01-26T12:27:08.085Z,12.50
2019-01-26T12:29:38.055Z,9.33
2019-01-26T12:32:07.926Z,11.07
2019-01-26T12:34:38.639Z,10.03
2019-01-26T12:37:10.157Z,8.83
2019-01-26T12:39:40.376Z,13.77
2019-01-26T12:42:10.268Z,8.70
2019-01-26T12:44:40.054Z,11.20
2019-01-26T12:47:16.788Z,9.07
2019-01-26T12:49:41.772Z,9.07
2019-01-26T12:52:11.464Z,11.03
2019-01-26T12:54:50.649Z,11.17
2019-01-26T12:57:20.316Z,13.47
2019-01-26T12:59:49.935Z,9.53
2019-01-26T13:02:19.605Z,8.90
2019-01-26T13:04:54.870Z,9.30
2019-01-26T13:07:24.816Z,9.83
2019-01-26T13:10:00.841Z,8.53
2019-01-26T13:12:45.095Z,9.63
2019-01-26T13:15:15.564Z,9.40
2019-01-26T13:17:51.736Z,11.58
2019-01-26T13:20:22.016Z,13.57
2019-01-26T13:22:51.844Z,13.07
2019-01-26T13:25:25.674Z,8.30
2019-01-26T13:27:56.036Z,8.37
2019-01-26T13:30:28.105Z,7.73
2019-01-26T13:32:57.932Z,9.17
2019-01-26T13:35:28.141Z,7.63
2019-01-26T13:37:58.244Z,7.80
2019-01-26T13:40:27.913Z,6.77
2019-01-26T13:42:57.872Z,5.90
2019-01-26T13:45:27.688Z,6.83
2019-01-26T13:47:57.601Z,10.63
2019-01-26T13:50:27.304Z,6.60
2019-01-26T13:52:57.121Z,5.67
2019-01-26T13:55:27.108Z,12.20
2019-01-26T13:57:56.752Z,7.40
2019-01-26T14:00:28.609Z,7.20
2019-01-26T14:02:58.146Z,9.57
2019-01-26T14:05:27.776Z,14.70
2019-01-26T14:07:58.135Z,10.40
2019-01-26T14:10:28.045Z,6.93
2019-01-26T14:12:57.688Z,9.00
2019-01-26T14:15:27.711Z,5.93
2019-01-26T14:17:57.325Z,6.40
2019-01-26T14:20:27.599Z,6.37
2019-01-26T14:22:57.517Z,9.30
2019-01-26T14:25:27.644Z,9.07
2019-01-26T14:27:57.256Z,6.20
2019-01-26T14:30:30.436Z,9.40
2019-01-26T14:33:00.192Z,11.13
2019-01-26T14:35:29.842Z,7.33
2019-01-26T14:37:59.562Z,10.63
2019-01-26T14:40:29.978Z,8.27
2019-01-26T14:42:59.705Z,10.07
2019-01-26T14:45:29.352Z,8.27
2019-01-26T14:48:08.085Z,28.37
2019-01-26T14:50:37.713Z,11.47
2019-01-26T14:53:13.525Z,9.43
2019-01-26T14:55:43.133Z,8.67
2019-01-26T14:58:13.098Z,8.10
2019-01-26T15:00:43.104Z,7.60
2019-01-26T15:03:12.683Z,6.47
2019-01-26T15:05:42.633Z,10.17
2019-01-26T15:08:12.544Z,7.97
2019-01-26T15:10:42.564Z,8.23
2019-01-26T15:13:12.104Z,7.93
2019-01-26T15:15:41.884Z,7.47
2019-01-26T15:18:11.799Z,8.30
2019-01-26T15:20:42.061Z,8.50
2019-01-26T15:23:12.437Z,5.17
2019-01-26T15:25:42.188Z,6.97
2019-01-26T15:28:11.914Z,7.27
2019-01-26T15:30:43.088Z,8.93
2019-01-26T15:33:15.624Z,7.37
2019-01-26T15:35:45.580Z,6.37
2019-01-26T15:38:15.499Z,5.30
2019-01-26T15:40:53.296Z,6.77
2019-01-26T15:43:24.458Z,7.30
2019-01-26T15:45:54.770Z,5.50
2019-01-26T15:48:24.388Z,8.77
2019-01-26T15:50:54.380Z,8.03
2019-01-26T15:53:24.120Z,6.83
2019-01-26T15:55:53.717Z,8.17
2019-01-26T15:58:23.509Z,11.40
2019-01-26T16:00:53.093Z,8.83
2019-01-26T16:03:22.929Z,9.07
2019-01-26T16:05:52.551Z,10.60
2019-01-26T16:08:22.280Z,8.83
2019-01-26T16:10:52.260Z,10.30
2019-01-26T16:13:21.874Z,8.00
2019-01-26T16:15:51.668Z,6.87
2019-01-26T16:18:21.488Z,7.13
2019-01-26T16:20:51.403Z,13.37
2019-01-26T16:23:21.144Z,7.90
2019-01-26T16:25:50.737Z,11.87
2019-01-26T16:28:20.426Z,7.83
2019-01-26T16:30:50.646Z,9.30
2019-01-26T16:33:20.555Z,9.07
2019-01-26T16:35:50.363Z,10.60
2019-01-26T16:38:20.172Z,10.17
2019-01-26T16:40:49.756Z,5.43
2019-01-26T16:43:19.588Z,7.63
2019-01-26T16:45:49.132Z,6.47
2019-01-26T16:48:18.712Z,6.57
2019-01-26T16:50:48.438Z,9.47
2019-01-26T16:53:18.023Z,5.60
2019-01-26T16:55:48.243Z,7.27
2019-01-26T16:58:18.057Z,6.80
2019-01-26T17:00:50.020Z,6.33
2019-01-26T17:03:20.028Z,7.60
2019-01-26T17:05:55.767Z,5.87
2019-01-26T17:08:26.103Z,8.57
2019-01-26T17:10:56.027Z,6.60
2019-01-26T17:13:25.929Z,5.00
2019-01-26T17:15:55.595Z,9.67
2019-01-26T17:18:25.549Z,8.63
2019-01-26T17:20:55.465Z,9.17
2019-01-26T17:23:25.080Z,7.63
2019-01-26T17:25:54.980Z,6.73
2019-01-26T17:28:25.104Z,9.80
2019-01-26T17:30:55.128Z,6.83
2019-01-26T17:33:25.552Z,11.40
2019-01-26T17:35:55.352Z,10.10
2019-01-26T17:38:24.924Z,9.03
2019-01-26T17:40:54.973Z,11.33
2019-01-26T17:43:24.628Z,7.23
2019-01-26T17:45:54.514Z,9.83
2019-01-26T17:48:24.405Z,8.07
2019-01-26T17:50:54.317Z,9.93
2019-01-26T17:53:24.137Z,7.47
2019-01-26T17:55:53.945Z,8.27
2019-01-26T17:58:24.164Z,6.77
2019-01-26T18:00:58.594Z,9.17
2019-01-26T18:03:28.504Z,9.50
2019-01-26T18:05:58.420Z,10.87
2019-01-26T18:08:28.273Z,11.97
2019-01-26T18:10:58.006Z,8.37
2019-01-26T18:13:27.946Z,9.20
2019-01-26T18:15:57.964Z,10.60
2019-01-26T18:18:27.531Z,11.70
2019-01-26T18:20:57.779Z,7.93
2019-01-26T18:23:32.060Z,9.27
2019-01-26T18:26:02.840Z,11.80
2019-01-26T18:28:35.746Z,10.87
2019-01-26T18:31:05.607Z,8.50
2019-01-26T18:33:35.206Z,8.75
2019-01-26T18:36:05.261Z,14.53
2019-01-26T18:38:35.071Z,6.57
2019-01-26T18:41:12.560Z,9.39
2019-01-26T18:43:42.906Z,12.20
2019-01-26T18:46:15.652Z,9.93
2019-01-26T18:48:45.854Z,11.37
2019-01-26T18:51:15.673Z,12.50
2019-01-26T18:53:45.413Z,9.57
2019-01-26T18:56:15.100Z,9.70
2019-01-26T18:58:44.817Z,9.07
2019-01-26T19:01:32.795Z,7.90
2019-01-26T19:04:07.816Z,8.43
2019-01-26T19:06:37.813Z,8.68
2019-01-26T19:09:11.045Z,8.27
2019-01-26T19:11:40.843Z,8.40
2019-01-26T19:14:10.831Z,7.90
2019-01-26T19:16:40.839Z,10.57
2019-01-26T19:19:11.060Z,11.63
2019-01-26T19:21:40.820Z,16.40
2019-01-26T19:24:10.579Z,11.87
2019-01-26T19:26:40.499Z,9.60
2019-01-26T19:29:10.300Z,8.23
2019-01-26T19:31:40.533Z,11.43
2019-01-26T19:34:10.497Z,9.77
2019-01-26T19:36:40.552Z,8.57
2019-01-26T19:39:10.093Z,9.80
2019-01-26T19:41:39.632Z,8.23
2019-01-26T19:44:09.782Z,8.27
2019-01-26T19:46:39.464Z,9.70
2019-01-26T19:49:09.349Z,7.58
2019-01-26T19:51:39.174Z,9.87
2019-01-26T19:54:09.228Z,7.77
2019-01-26T19:56:39.277Z,6.60
2019-01-26T19:59:09.277Z,9.47
2019-01-26T20:01:39.301Z,6.00
2019-01-26T20:04:09.095Z,6.87
2019-01-26T20:06:39.220Z,6.10
2019-01-26T20:09:09.674Z,8.63
2019-01-26T20:11:39.723Z,7.33
2019-01-26T20:14:09.601Z,6.63
2019-01-26T20:16:39.606Z,7.80
2019-01-26T20:19:09.588Z,7.17
2019-01-26T20:21:39.625Z,5.10
2019-01-26T20:24:09.390Z,6.30
2019-01-26T20:26:39.132Z,6.23
2019-01-26T20:29:09.180Z,7.93
2019-01-26T20:31:57.540Z,7.43
2019-01-26T20:34:27.708Z,6.77
2019-01-26T20:36:57.383Z,6.67
2019-01-26T20:39:26.960Z,5.17
2019-01-26T20:41:59.652Z,6.47
2019-01-26T20:44:29.625Z,7.70
2019-01-26T20:46:59.177Z,5.23
2019-01-26T20:49:28.736Z,6.33
2019-01-26T20:51:58.377Z,7.80
2019-01-26T20:54:28.244Z,7.90
2019-01-26T20:56:58.266Z,6.30
2019-01-26T20:59:28.073Z,6.57
2019-01-26T21:01:57.993Z,5.30
2019-01-26T21:04:27.901Z,5.03
2019-01-26T21:06:58.067Z,4.43
2019-01-26T21:09:28.044Z,3.87
2019-01-26T21:11:57.844Z,6.37
2019-01-26T21:14:27.732Z,5.43
2019-01-26T21:16:57.358Z,5.07
2019-01-26T21:19:26.956Z,4.97
2019-01-26T21:21:56.886Z,7.43
2019-01-26T21:24:26.699Z,6.57
2019-01-26T21:26:56.332Z,5.73
2019-01-26T21:29:25.887Z,5.23
2019-01-26T21:31:55.820Z,5.47
2019-01-26T21:34:33.108Z,5.90
2019-01-26T21:37:02.836Z,6.63
2019-01-26T21:39:32.440Z,7.80
2019-01-26T21:42:02.398Z,5.97
2019-01-26T21:44:32.343Z,4.90
2019-01-26T21:47:02.220Z,6.50
2019-01-26T21:49:32.077Z,6.37
2019-01-26T21:52:01.772Z,4.20
2019-01-26T21:54:31.800Z,4.13
2019-01-26T21:57:01.405Z,5.20
2019-01-26T21:59:30.989Z,8.03
2019-01-26T22:02:00.764Z,5.23
2019-01-26T22:04:30.777Z,4.62
2019-01-26T22:07:00.957Z,5.27
2019-01-26T22:09:30.871Z,6.60
2019-01-26T22:12:00.839Z,5.83
2019-01-26T22:14:30.904Z,4.67
2019-01-26T22:17:00.519Z,4.93
2019-01-26T22:19:30.233Z,4.53
2019-01-26T22:22:00.024Z,5.23
2019-01-26T22:24:29.845Z,5.47
2019-01-26T22:27:11.540Z,4.13
2019-01-26T22:29:41.548Z,5.60
2019-01-26T22:32:11.451Z,4.57
2019-01-26T22:34:41.016Z,4.60
2019-01-26T22:37:10.876Z,5.70
2019-01-26T22:39:41.096Z,5.80
2019-01-26T22:42:10.911Z,4.43
2019-01-26T22:44:40.716Z,4.00
2019-01-26T22:47:10.470Z,3.83
2019-01-26T22:49:40.343Z,5.37
2019-01-26T22:52:10.384Z,4.97
2019-01-26T22:54:40.712Z,4.90
2019-01-26T22:57:11.032Z,4.73
2019-01-26T22:59:40.584Z,4.60
2019-01-26T23:02:10.574Z,5.59
2019-01-26T23:05:27.946Z,7.67
2019-01-26T23:08:10.996Z,4.10
2019-01-26T23:11:24.868Z,5.63
2019-01-26T23:14:52.401Z,4.83
2019-01-26T23:18:05.348Z,5.47
2019-01-26T23:20:46.209Z,4.73
2019-01-26T23:24:02.266Z,6.63
2019-01-26T23:26:42.122Z,3.73
2019-01-26T23:29:47.092Z,3.40
2019-01-26T23:32:17.647Z,4.53
2019-01-26T23:34:47.587Z,2.90
2019-01-26T23:37:17.153Z,3.50
2019-01-26T23:39:46.705Z,4.03
2019-01-26T23:42:16.316Z,4.90
2019-01-26T23:44:45.957Z,5.87
2019-01-26T23:47:15.592Z,4.90
2019-01-26T23:49:45.525Z,4.63
2019-01-26T23:52:15.136Z,3.67
2019-01-26T23:54:44.676Z,3.90
2019-01-26T23:57:14.550Z,7.30
2019-01-26T23:59:44.416Z,4.03
